Time;durP1;ratioP1;P1;durP2;ratioP2;P2;SDS_P1;SDS_P2;PMS_P1;PMS_P2;Temp;Humidity;BMP_temperature;BMP_pressure;BME280_temperature;BME280_humidity;BME280_pressure;Samples;Min_cycle;Max_cycle;Signal;HPM_P1;HPM_P2
2023/05/25 03:54:13;;;;;;;4.97;2.83;;;9.20;99.90;;;;;;4859359;29;20594;-71
2023/05/25 03:56:39;;;;;;;6.35;3.55;;;9.20;99.90;;;;;;4861144;29;20570;-71
2023/05/25 03:59:06;;;;;;;5.63;2.80;;;9.20;99.90;;;;;;4861035;29;20207;-72
2023/05/25 04:01:36;;;;;;;5.45;3.55;;;9.20;99.90;;;;;;4868192;29;20230;-72
2023/05/25 04:04:03;;;;;;;8.18;2.95;;;9.30;99.90;;;;;;4879517;29;20192;-71
2023/05/25 04:06:30;;;;;;;5.70;3.08;;;9.30;99.90;;;;;;4879994;29;20231;-71
2023/05/25 04:08:57;;;;;;;9.48;3.58;;;9.50;99.90;;;;;;4882997;29;20206;-72
2023/05/25 04:11:26;;;;;;;6.47;3.55;;;9.90;99.90;;;;;;4883276;29;20322;-71
2023/05/25 04:13:53;;;;;;;9.23;3.33;;;10.40;99.90;;;;;;4883084;29;20241;-71
2023/05/25 04:16:20;;;;;;;4.80;3.00;;;10.90;99.90;;;;;;4882853;29;20206;-70
2023/05/25 04:18:47;;;;;;;4.25;2.80;;;11.40;99.90;;;;;;4883041;29;20211;-70
2023/05/25 04:21:13;;;;;;;4.88;3.35;;;11.90;99.90;;;;;;4882628;29;20227;-71
2023/05/25 04:23:41;;;;;;;2.72;2.45;;;12.30;99.90;;;;;;4882970;29;20211;-71
2023/05/25 04:26:09;;;;;;;4.72;2.40;;;12.80;99.90;;;;;;4882718;29;20271;-71
2023/05/25 04:28:39;;;;;;;8.98;3.50;;;13.30;99.90;;;;;;4882789;29;20238;-71
2023/05/25 04:31:06;;;;;;;7.13;2.83;;;13.60;92.20;;;;;;4882969;29;20226;-72
2023/05/25 04:33:33;;;;;;;3.80;2.42;;;13.70;89.20;;;;;;4882681;29;20230;-72
2023/05/25 04:35:59;;;;;;;3.35;2.58;;;14.00;93.40;;;;;;4882476;29;20694;-72
2023/05/25 04:38:26;;;;;;;5.68;2.80;;;14.50;91.70;;;;;;4882411;29;20582;-72
2023/05/25 04:40:53;;;;;;;5.88;2.95;;;15.00;83.50;;;;;;4882527;29;20202;-72
2023/05/25 04:43:20;;;;;;;3.97;2.72;;;15.60;81.70;;;;;;4882447;29;20214;-72
2023/05/25 04:45:50;;;;;;;4.13;2.83;;;16.30;79.30;;;;;;4882380;29;20223;-72
2023/05/25 04:48:16;;;;;;;3.38;2.50;;;16.80;67.40;;;;;;4882235;29;20687;-72
2023/05/25 04:50:43;;;;;;;2.42;2.10;;;17.30;72.00;;;;;;4882338;29;20242;-73
2023/05/25 04:53:10;;;;;;;2.38;2.17;;;17.90;77.70;;;;;;4882291;29;20557;-72
2023/05/25 04:55:37;;;;;;;3.15;2.30;;;18.40;71.60;;;;;;4882354;29;20228;-72
2023/05/25 04:58:04;;;;;;;7.53;3.35;;;18.90;67.80;;;;;;4882384;29;20251;-72
2023/05/25 05:00:33;;;;;;;3.55;2.15;;;19.70;60.70;;;;;;4882329;29;20221;-72
2023/05/25 05:03:01;;;;;;;9.18;3.30;;;19.90;58.00;;;;;;4882153;29;20230;-72
2023/05/25 05:05:27;;;;;;;4.60;2.30;;;20.20;57.00;;;;;;4881788;29;20725;-72
2023/05/25 05:07:54;;;;;;;2.60;2.10;;;20.50;56.70;;;;;;4882031;29;20202;-72
2023/05/25 05:10:21;;;;;;;3.88;2.33;;;20.90;55.80;;;;;;4882082;29;20309;-72
2023/05/25 05:12:48;;;;;;;10.95;3.33;;;21.50;54.20;;;;;;4882184;29;20226;-72
2023/05/25 05:15:15;;;;;;;4.22;2.42;;;22.00;50.50;;;;;;4881851;29;20202;-72
2023/05/25 05:17:41;;;;;;;4.25;2.45;;;22.50;50.70;;;;;;4882049;29;20262;-72
2023/05/25 05:20:10;;;;;;;4.55;2.63;;;22.80;50.00;;;;;;4881108;29;20254;-73
2023/05/25 05:22:37;;;;;;;3.95;2.78;;;23.30;48.00;;;;;;4881890;29;20593;-73
2023/05/25 05:25:04;;;;;;;5.70;3.33;;;23.20;46.90;;;;;;4881790;29;20225;-73
2023/05/25 05:27:31;;;;;;;4.57;2.55;;;23.50;47.30;;;;;;4881808;29;20213;-71
2023/05/25 05:29:58;;;;;;;6.28;3.20;;;23.70;48.00;;;;;;4881496;29;20697;-69
2023/05/25 05:32:24;;;;;;;5.82;2.90;;;24.50;45.20;;;;;;4881743;29;20230;-69
2023/05/25 05:34:51;;;;;;;5.93;3.33;;;24.70;44.90;;;;;;4881650;29;20209;-69
2023/05/25 05:37:19;;;;;;;7.18;3.33;;;24.80;45.40;;;;;;4881642;29;20308;-69
2023/05/25 05:39:46;;;;;;;7.93;3.15;;;25.20;43.60;;;;;;4881585;29;20306;-69
2023/05/25 05:42:13;;;;;;;2.78;2.25;;;25.60;43.50;;;;;;4881485;29;20226;-69
2023/05/25 05:44:39;;;;;;;5.60;2.50;;;25.50;44.20;;;;;;4881140;29;20725;-69
2023/05/25 05:47:06;;;;;;;4.07;2.47;;;25.50;45.00;;;;;;4881232;29;20212;-74
2023/05/25 05:49:33;;;;;;;7.72;2.70;;;25.80;39.50;;;;;;4881494;29;20233;-75
2023/05/25 05:52:00;;;;;;;3.15;2.38;;;25.90;39.50;;;;;;4881377;29;20261;-75
2023/05/25 05:54:28;;;;;;;8.35;3.28;;;26.10;37.60;;;;;;4881173;29;20214;-75
2023/05/25 05:56:55;;;;;;;7.30;3.22;;;25.70;40.80;;;;;;4881393;29;20202;-75
2023/05/25 05:59:22;;;;;;;4.97;3.10;;;25.60;40.60;;;;;;4881248;29;20273;-74
2023/05/25 06:01:49;;;;;;;2.55;2.30;;;25.60;40.00;;;;;;4881187;29;20592;-74
2023/05/25 06:04:16;;;;;;;4.45;3.17;;;25.90;42.10;;;;;;4881343;29;20206;-74
2023/05/25 06:06:44;;;;;;;6.03;3.50;;;26.70;38.80;;;;;;4882767;29;20586;-72
2023/05/25 06:09:11;;;;;;;4.78;2.45;;;26.70;39.10;;;;;;4881809;29;20730;-74
2023/05/25 06:11:39;;;;;;;5.38;2.67;;;26.50;43.80;;;;;;4881002;29;20222;-74
2023/05/25 06:14:06;;;;;;;4.53;3.00;;;26.70;39.10;;;;;;4880755;29;20248;-74
2023/05/25 06:16:33;;;;;;;8.02;3.15;;;25.90;38.20;;;;;;4880795;29;20622;-73
2023/05/25 06:19:00;;;;;;;3.70;3.08;;;25.30;37.20;;;;;;4881034;29;20214;-73
2023/05/25 06:21:26;;;;;;;3.35;2.42;;;24.10;40.60;;;;;;4881073;29;20226;-73
2023/05/25 06:23:53;;;;;;;5.07;3.50;;;23.70;41.00;;;;;;4880945;29;20254;-73
2023/05/25 08:51:43;;;;;;;4.88;4.10;;;13.90;99.90;;;;;;5609831;23;20225;-72
2023/05/25 08:54:12;;;;;;;5.70;4.95;;;13.90;99.90;;;;;;4917489;29;20670;-73
2023/05/25 08:56:48;;;;;;;7.88;4.97;;;14.00;99.90;;;;;;4920172;29;20561;-72
2023/05/25 08:59:26;;;;;;;5.47;4.80;;;14.10;99.90;;;;;;4920280;29;20245;-73
2023/05/25 09:01:58;;;;;;;6.63;4.80;;;14.20;99.90;;;;;;4920237;29;20345;-74
2023/05/25 09:04:26;;;;;;;6.57;5.15;;;14.20;99.90;;;;;;4920624;29;20241;-74
2023/05/25 09:06:54;;;;;;;5.00;4.35;;;14.20;99.90;;;;;;4919668;29;20229;-74
2023/05/25 09:09:22;;;;;;;6.32;4.38;;;14.30;99.90;;;;;;4919873;29;20201;-73
2023/05/25 09:11:48;;;;;;;6.03;4.38;;;14.30;99.90;;;;;;4919605;29;20229;-73
2023/05/25 09:14:15;;;;;;;5.40;4.90;;;14.30;99.90;;;;;;4919386;29;20209;-74
2023/05/25 09:16:42;;;;;;;4.82;4.25;;;14.30;99.90;;;;;;4919952;29;20213;-74
2023/05/25 09:19:09;;;;;;;9.50;5.18;;;14.40;99.90;;;;;;4919765;29;20213;-74
2023/05/25 09:21:36;;;;;;;6.20;4.65;;;14.50;99.90;;;;;;4919791;29;20276;-74
2023/05/25 09:24:05;;;;;;;5.28;4.75;;;14.70;99.90;;;;;;4919701;29;20241;-73
2023/05/25 09:26:32;;;;;;;8.15;5.88;;;15.00;99.90;;;;;;4919584;29;20233;-75
2023/05/25 09:28:59;;;;;;;6.13;4.57;;;15.20;99.90;;;;;;4919562;29;20295;-74
2023/05/25 09:31:25;;;;;;;6.97;6.05;;;15.20;99.90;;;;;;4919579;29;20225;-75
2023/05/25 09:33:58;;;;;;;8.23;5.63;;;15.10;99.90;;;;;;4919170;29;20576;-74
2023/05/25 09:36:25;;;;;;;11.00;5.53;;;15.10;99.90;;;;;;4919481;29;20601;-73
2023/05/25 09:38:53;;;;;;;9.63;6.63;;;15.10;99.90;;;;;;4919450;29;20208;-74
2023/05/25 09:41:22;;;;;;;8.98;6.20;;;14.90;99.90;;;;;;4919119;29;20574;-74
2023/05/25 09:43:48;;;;;;;6.05;5.35;;;14.90;99.90;;;;;;4919347;29;20209;-74
2023/05/25 09:46:15;;;;;;;7.90;6.05;;;14.90;99.90;;;;;;4919217;29;20225;-73
2023/05/25 09:48:44;;;;;;;8.38;5.50;;;15.00;99.90;;;;;;4919234;29;20670;-74
2023/05/25 09:51:11;;;;;;;6.88;5.95;;;15.10;99.90;;;;;;4918903;29;20268;-74
2023/05/25 09:53:38;;;;;;;7.65;6.05;;;15.10;99.90;;;;;;4918943;29;20584;-73
2023/05/25 09:56:06;;;;;;;6.57;5.63;;;15.10;99.90;;;;;;4918891;29;20186;-74
2023/05/25 09:58:34;;;;;;;5.65;5.03;;;15.10;99.90;;;;;;4919178;29;20205;-73
2023/05/25 10:01:01;;;;;;;9.27;6.05;;;15.10;99.90;;;;;;4919053;29;20225;-73
2023/05/25 10:03:27;;;;;;;5.95;4.82;;;15.10;99.90;;;;;;4919114;29;20239;-73
2023/05/25 10:05:54;;;;;;;6.15;5.57;;;15.20;99.90;;;;;;4918403;29;20233;-73
2023/05/25 10:08:24;;;;;;;7.13;5.70;;;15.20;99.90;;;;;;4919004;29;20205;-73
2023/05/25 10:10:50;;;;;;;6.50;5.80;;;15.30;99.90;;;;;;4918938;29;20225;-73
2023/05/25 10:13:21;;;;;;;8.07;5.80;;;15.30;99.90;;;;;;4919116;29;20205;-73
2023/05/25 10:15:52;;;;;;;9.10;6.82;;;15.20;99.90;;;;;;4918965;29;20232;-73
2023/05/25 10:18:24;;;;;;;5.85;5.18;;;15.40;99.90;;;;;;4919369;29;20190;-74
2023/05/25 10:20:56;;;;;;;5.82;5.05;;;15.50;99.90;;;;;;4919124;29;20194;-74
2023/05/25 10:23:24;;;;;;;9.23;6.70;;;15.60;99.90;;;;;;4918952;29;20208;-73
2023/05/25 10:25:57;;;;;;;7.85;5.82;;;15.60;99.90;;;;;;4918787;29;20209;-73
2023/05/25 10:28:30;;;;;;;10.60;5.25;;;15.60;99.90;;;;;;4918814;29;20191;-73
2023/05/25 10:31:00;;;;;;;6.43;5.05;;;15.80;99.90;;;;;;4918777;29;20189;-73
2023/05/25 10:33:28;;;;;;;6.20;4.65;;;15.90;99.90;;;;;;4918664;29;20189;-74
2023/05/25 10:35:55;;;;;;;5.32;4.65;;;16.30;99.90;;;;;;4918410;29;20565;-74
2023/05/25 10:38:22;;;;;;;7.63;5.55;;;16.50;99.90;;;;;;4918144;29;20566;-74
2023/05/25 10:40:50;;;;;;;8.75;6.22;;;16.60;99.90;;;;;;4918264;29;20205;-74
2023/05/25 10:43:18;;;;;;;7.20;5.55;;;16.50;99.90;;;;;;4918290;29;20205;-73
2023/05/25 10:45:45;;;;;;;8.38;6.28;;;16.60;99.90;;;;;;4918224;29;20209;-74
2023/05/25 10:48:14;;;;;;;7.25;5.75;;;16.50;99.90;;;;;;4918453;29;20201;-73
2023/05/25 10:50:40;;;;;;;6.85;5.05;;;16.40;99.90;;;;;;4917885;29;20649;-73
2023/05/25 10:53:08;;;;;;;7.65;5.25;;;16.30;99.90;;;;;;4918001;29;20300;-74
2023/05/25 10:55:49;;;;;;;6.88;6.10;;;16.20;99.90;;;;;;4918109;29;20209;-73
2023/05/25 10:58:17;;;;;;;12.70;6.28;;;16.20;99.90;;;;;;4918289;29;20186;-74
2023/05/25 11:00:56;;;;;;;6.25;5.65;;;16.00;99.90;;;;;;4917961;29;20209;-74
2023/05/25 11:03:53;;;;;;;7.88;6.20;;;15.90;99.90;;;;;;4917956;29;20217;-73
2023/05/25 11:06:21;;;;;;;6.43;5.68;;;15.80;99.90;;;;;;4917837;29;20227;-74
2023/05/25 11:08:53;;;;;;;6.65;5.80;;;15.90;99.90;;;;;;4917914;29;20232;-73
2023/05/25 11:11:21;;;;;;;7.25;5.75;;;15.90;99.90;;;;;;4917610;29;20255;-74
2023/05/25 11:13:49;;;;;;;7.05;6.10;;;15.90;99.90;;;;;;4917419;29;20683;-73
2023/05/25 11:16:18;;;;;;;8.63;6.03;;;16.00;99.90;;;;;;4917206;29;20206;-76
2023/05/25 11:18:50;;;;;;;6.47;5.13;;;16.00;99.90;;;;;;4917523;29;20209;-72
2023/05/25 11:21:22;;;;;;;6.00;4.90;;;16.10;99.90;;;;;;4917456;29;20264;-74
2023/05/25 11:23:56;;;;;;;9.45;5.97;;;16.30;99.90;;;;;;4917587;29;20185;-74
2023/05/25 11:26:24;;;;;;;9.80;6.22;;;16.50;99.90;;;;;;4917448;29;20225;-74
2023/05/25 11:28:52;;;;;;;6.80;6.07;;;16.40;99.90;;;;;;4917451;29;20213;-74
2023/05/25 11:31:29;;;;;;;8.05;5.50;;;16.40;99.90;;;;;;4917292;29;20729;-74
2023/05/25 11:33:59;;;;;;;8.02;5.88;;;16.50;99.90;;;;;;4917406;29;20221;-74
2023/05/25 11:36:30;;;;;;;6.55;5.43;;;16.50;99.90;;;;;;4917338;29;20201;-74
2023/05/25 11:39:00;;;;;;;11.80;6.50;;;16.60;99.90;;;;;;4917068;29;20565;-74
2023/05/25 11:41:27;;;;;;;11.63;6.45;;;16.60;99.90;;;;;;4917407;29;20273;-74
2023/05/25 11:43:55;;;;;;;8.82;6.93;;;16.50;99.90;;;;;;4916815;29;20201;-74
2023/05/25 11:46:22;;;;;;;9.07;6.03;;;16.50;99.90;;;;;;4917066;29;20249;-74
2023/05/25 11:48:51;;;;;;;13.13;6.35;;;16.60;99.90;;;;;;4916911;29;20819;-73
2023/05/25 11:51:20;;;;;;;8.15;6.55;;;16.70;99.90;;;;;;4917306;29;20288;-73
2023/05/25 11:53:48;;;;;;;6.65;6.05;;;16.80;99.90;;;;;;4917104;29;20244;-74
2023/05/25 11:56:17;;;;;;;8.30;5.57;;;16.70;99.90;;;;;;4917171;29;20256;-74
2023/05/25 11:58:44;;;;;;;6.25;5.05;;;16.90;99.90;;;;;;4917134;29;20256;-74
2023/05/25 12:01:15;;;;;;;6.38;5.47;;;17.10;99.90;;;;;;4917061;29;20240;-74
2023/05/25 12:03:42;;;;;;;8.35;5.35;;;17.20;99.90;;;;;;4917526;29;20212;-75
2023/05/25 12:06:22;;;;;;;6.68;5.93;;;17.40;99.90;;;;;;4919381;29;20238;-74
2023/05/25 12:08:51;;;;;;;8.73;6.35;;;17.60;99.90;;;;;;4921489;29;20193;-74
2023/05/25 12:11:18;;;;;;;5.72;5.20;;;17.70;99.90;;;;;;4921563;29;20240;-74
2023/05/25 12:13:46;;;;;;;7.68;5.75;;;17.80;99.90;;;;;;4919562;29;20522;-74
2023/05/25 12:16:13;;;;;;;6.53;5.85;;;17.90;99.90;;;;;;4918585;29;20264;-74
2023/05/25 12:18:41;;;;;;;8.13;5.47;;;18.00;99.90;;;;;;4919432;29;20209;-73
2023/05/25 12:21:09;;;;;;;7.03;6.22;;;18.00;99.90;;;;;;4919423;29;20646;-73
2023/05/25 12:23:36;;;;;;;6.00;4.78;;;18.00;99.90;;;;;;4917994;29;20517;-73
2023/05/25 12:26:10;;;;;;;8.75;5.65;;;17.90;99.90;;;;;;4917603;29;20201;-73
2023/05/25 12:28:37;;;;;;;5.00;4.50;;;17.90;99.90;;;;;;4920856;29;20193;-73
2023/05/25 12:31:23;;;;;;;12.43;6.95;;;18.00;99.90;;;;;;4920507;29;20259;-73
2023/05/25 12:34:05;;;;;;;6.53;4.95;;;18.10;99.90;;;;;;4920282;29;20257;-73
2023/05/25 12:36:45;;;;;;;10.90;6.18;;;18.30;99.90;;;;;;4917987;29;20209;-73
2023/05/25 12:39:13;;;;;;;7.50;5.38;;;18.40;99.90;;;;;;4920284;29;20231;-73
2023/05/25 12:41:46;;;;;;;6.45;5.13;;;18.30;99.90;;;;;;4920094;29;20229;-73
2023/05/25 12:44:21;;;;;;;4.78;4.32;;;18.30;99.90;;;;;;4921062;29;20204;-73
2023/05/25 12:46:48;;;;;;;8.65;5.38;;;18.30;99.90;;;;;;4920144;29;20683;-73
2023/05/25 12:49:29;;;;;;;5.03;4.53;;;18.30;99.90;;;;;;4919803;29;20621;-74
2023/05/25 12:51:56;;;;;;;8.93;5.78;;;18.40;99.90;;;;;;4920554;29;20233;-73
2023/05/25 12:54:37;;;;;;;5.35;4.75;;;18.30;99.90;;;;;;4919793;29;20280;-73
2023/05/25 12:57:06;;;;;;;5.22;4.60;;;18.30;99.90;;;;;;4919655;29;20636;-73
2023/05/25 12:59:34;;;;;;;6.00;5.05;;;18.40;99.90;;;;;;4919970;29;20212;-73
2023/05/25 13:02:01;;;;;;;6.28;5.40;;;18.40;99.90;;;;;;4919979;29;20240;-72
2023/05/25 13:04:28;;;;;;;11.98;6.00;;;18.40;99.90;;;;;;4919555;29;20201;-72
2023/05/25 13:06:55;;;;;;;7.60;5.05;;;18.30;99.90;;;;;;4919734;29;20247;-73
2023/05/25 13:09:25;;;;;;;4.35;3.95;;;18.20;99.90;;;;;;4919583;29;20684;-73
2023/05/25 13:11:53;;;;;;;4.47;4.05;;;18.10;99.90;;;;;;4919799;29;20319;-73
2023/05/25 13:14:21;;;;;;;6.65;4.72;;;18.20;99.90;;;;;;4919698;29;20205;-73
2023/05/25 13:16:48;;;;;;;7.03;5.80;;;18.30;99.90;;;;;;4919737;29;20260;-73
2023/05/25 13:19:15;;;;;;;9.00;5.45;;;18.30;99.90;;;;;;4920105;29;20212;-73
2023/05/25 13:21:42;;;;;;;8.45;5.70;;;18.20;99.90;;;;;;4919223;29;20700;-73
2023/05/25 13:24:09;;;;;;;6.50;4.88;;;18.30;99.90;;;;;;4919754;29;20209;-73
2023/05/25 13:26:35;;;;;;;6.45;4.75;;;18.30;99.90;;;;;;4919126;29;20584;-74
2023/05/25 13:29:02;;;;;;;7.07;4.28;;;18.30;99.90;;;;;;4919340;29;20224;-74
2023/05/25 13:31:30;;;;;;;8.00;5.18;;;18.30;99.90;;;;;;4920136;29;20224;-75
2023/05/25 13:33:58;;;;;;;9.30;5.38;;;18.40;99.30;;;;;;4919272;29;20205;-74
2023/05/25 13:36:25;;;;;;;8.15;5.03;;;18.40;99.60;;;;;;4919538;29;20209;-74
2023/05/25 13:38:52;;;;;;;12.73;5.65;;;18.50;99.90;;;;;;4919639;29;20252;-74
2023/05/25 13:41:19;;;;;;;5.43;4.80;;;18.60;98.70;;;;;;4919372;29;20225;-74
2023/05/25 13:43:46;;;;;;;6.25;4.07;;;18.60;95.40;;;;;;4919285;29;20205;-74
2023/05/25 13:46:13;;;;;;;5.57;4.40;;;18.60;96.30;;;;;;4919203;29;20280;-74
2023/05/25 13:48:46;;;;;;;4.50;4.03;;;18.70;96.00;;;;;;4918662;29;20689;-74
2023/05/25 13:51:14;;;;;;;5.30;4.35;;;18.70;95.50;;;;;;4919019;29;20811;-74
2023/05/25 13:53:40;;;;;;;5.28;4.75;;;18.90;93.90;;;;;;4918755;29;20708;-74
2023/05/25 13:56:07;;;;;;;7.38;5.07;;;18.90;94.80;;;;;;4918853;29;20749;-75
2023/05/25 13:58:35;;;;;;;5.50;4.50;;;19.10;94.90;;;;;;4918762;29;20287;-74
2023/05/25 14:01:02;;;;;;;7.10;5.50;;;19.10;95.20;;;;;;4918951;29;20679;-74
2023/05/25 14:03:28;;;;;;;5.53;4.57;;;19.20;94.90;;;;;;4918650;29;20216;-74
2023/05/25 14:05:57;;;;;;;6.50;4.57;;;19.20;95.30;;;;;;4918893;29;20209;-74
2023/05/25 14:08:23;;;;;;;5.07;4.63;;;19.20;94.90;;;;;;4918808;29;20276;-74
2023/05/25 14:10:50;;;;;;;6.78;4.70;;;19.10;94.90;;;;;;4918709;29;20284;-73
2023/05/25 14:13:17;;;;;;;6.18;5.13;;;19.10;92.70;;;;;;4918693;29;20215;-74
2023/05/25 14:15:44;;;;;;;6.68;4.30;;;19.10;90.80;;;;;;4918796;29;20211;-74
2023/05/25 14:18:10;;;;;;;7.93;5.47;;;19.00;92.00;;;;;;4918742;29;20307;-74
2023/05/25 14:20:39;;;;;;;6.53;4.93;;;18.90;93.50;;;;;;4918512;29;20208;-74
2023/05/25 14:23:07;;;;;;;5.65;4.88;;;19.00;94.80;;;;;;4918232;29;20684;-74
2023/05/25 14:25:34;;;;;;;4.75;4.35;;;19.00;93.90;;;;;;4918524;29;20216;-74
2023/05/25 14:28:01;;;;;;;4.35;3.92;;;19.00;93.40;;;;;;4918508;29;20228;-74
2023/05/25 14:30:27;;;;;;;4.60;4.20;;;19.00;93.40;;;;;;4918316;29;20212;-74
2023/05/25 14:32:55;;;;;;;6.45;4.50;;;19.00;92.20;;;;;;4918303;29;20232;-74
2023/05/25 14:35:22;;;;;;;5.90;4.72;;;18.90;92.50;;;;;;4918259;29;20205;-73
2023/05/25 14:37:49;;;;;;;5.90;4.53;;;19.00;92.60;;;;;;4918575;29;20201;-74
2023/05/25 14:40:18;;;;;;;4.35;4.03;;;19.10;94.00;;;;;;4918275;29;20616;-74
2023/05/25 14:42:45;;;;;;;9.48;5.28;;;19.30;93.50;;;;;;4918580;29;20228;-74
2023/05/25 14:45:12;;;;;;;5.82;4.32;;;19.40;91.10;;;;;;4918525;29;20209;-74
2023/05/25 14:47:39;;;;;;;5.82;5.25;;;19.40;91.70;;;;;;4918168;29;20228;-74
2023/05/25 14:50:07;;;;;;;8.95;5.68;;;19.40;90.90;;;;;;4918572;29;20211;-75
2023/05/25 14:52:35;;;;;;;6.47;5.70;;;19.40;91.70;;;;;;4918372;29;20235;-74
2023/05/25 14:55:02;;;;;;;5.68;5.10;;;19.30;92.30;;;;;;4918268;29;20228;-74
2023/05/25 14:57:30;;;;;;;4.47;4.07;;;19.30;92.00;;;;;;4918249;29;20696;-74
2023/05/25 14:59:57;;;;;;;7.20;4.90;;;19.10;91.20;;;;;;4918551;29;20558;-74
2023/05/25 15:02:24;;;;;;;4.75;4.10;;;19.10;91.40;;;;;;4918850;29;20229;-74
2023/05/25 15:04:52;;;;;;;5.40;4.32;;;18.90;91.40;;;;;;4918678;29;20213;-74
2023/05/25 15:07:20;;;;;;;8.48;4.80;;;19.00;90.60;;;;;;4919239;29;20768;-74
2023/05/25 15:09:47;;;;;;;6.68;3.92;;;18.90;90.90;;;;;;4919607;29;20677;-74
2023/05/25 15:12:14;;;;;;;6.38;4.60;;;18.80;92.40;;;;;;4918468;29;20296;-74
2023/05/25 15:14:42;;;;;;;4.60;4.20;;;18.80;92.20;;;;;;4917659;29;20204;-74
2023/05/25 15:17:09;;;;;;;5.55;4.38;;;18.80;93.50;;;;;;4917369;29;20672;-74
2023/05/25 15:19:36;;;;;;;4.40;4.00;;;18.80;94.20;;;;;;4917477;29;20209;-74
2023/05/25 15:22:03;;;;;;;4.72;4.00;;;18.80;93.80;;;;;;4917468;29;20236;-74
2023/05/25 15:24:30;;;;;;;4.97;3.60;;;18.90;94.20;;;;;;4917420;29;20201;-74
2023/05/25 15:26:57;;;;;;;4.22;3.67;;;19.00;95.20;;;;;;4917530;29;20292;-74
2023/05/25 15:29:23;;;;;;;6.97;4.68;;;19.10;96.00;;;;;;4917151;29;20231;-74
2023/05/25 15:31:52;;;;;;;9.82;4.15;;;19.20;92.60;;;;;;4917235;29;20236;-74
2023/05/25 15:34:19;;;;;;;6.60;4.43;;;19.20;91.90;;;;;;4917665;29;20240;-74
2023/05/25 15:36:46;;;;;;;5.00;4.20;;;19.10;90.80;;;;;;4917940;29;20673;-74
2023/05/25 15:39:13;;;;;;;5.45;4.10;;;18.90;92.30;;;;;;4917696;29;20204;-74
2023/05/25 15:41:40;;;;;;;5.15;3.55;;;18.90;93.30;;;;;;4917487;29;20229;-74
2023/05/25 15:44:07;;;;;;;6.07;3.85;;;18.90;93.40;;;;;;4917402;29;20691;-74
2023/05/25 15:46:34;;;;;;;5.95;4.20;;;18.90;95.00;;;;;;4917871;29;20205;-74
2023/05/25 15:49:09;;;;;;;3.90;3.60;;;19.00;94.80;;;;;;4917530;29;20274;-74
2023/05/25 15:51:37;;;;;;;6.85;3.88;;;19.00;95.10;;;;;;4917513;29;20279;-74
2023/05/25 15:54:03;;;;;;;5.70;3.92;;;19.10;95.00;;;;;;4917156;29;20212;-74
2023/05/25 15:56:31;;;;;;;5.22;4.00;;;19.20;95.30;;;;;;4916996;29;20577;-74
2023/05/25 15:58:58;;;;;;;6.38;4.53;;;19.20;92.90;;;;;;4916920;29;20670;-74
2023/05/25 16:01:24;;;;;;;6.32;4.82;;;19.20;92.40;;;;;;4917015;29;20236;-74
2023/05/25 16:03:51;;;;;;;4.95;4.55;;;19.20;94.00;;;;;;4919022;29;20201;-74
2023/05/25 16:06:19;;;;;;;6.45;4.03;;;19.20;94.50;;;;;;4921020;29;20264;-74
2023/05/25 16:08:46;;;;;;;6.72;3.45;;;19.20;94.50;;;;;;4921065;29;20225;-75
2023/05/25 16:11:13;;;;;;;7.00;3.53;;;19.20;92.50;;;;;;4921060;29;20228;-74
2023/05/25 16:13:39;;;;;;;6.20;4.03;;;19.10;92.00;;;;;;4921265;29;20613;-74
2023/05/25 16:16:07;;;;;;;6.57;4.28;;;19.00;91.90;;;;;;4921167;29;20204;-74
2023/05/25 16:18:34;;;;;;;6.22;4.28;;;19.00;92.70;;;;;;4921129;29;20549;-75
2023/05/25 16:21:00;;;;;;;5.15;4.65;;;19.00;93.30;;;;;;4921160;29;20228;-74
2023/05/25 16:23:28;;;;;;;3.97;3.58;;;19.10;94.30;;;;;;4920949;29;20205;-75
2023/05/25 16:25:55;;;;;;;6.50;4.10;;;19.20;94.10;;;;;;4920960;29;20217;-75
2023/05/25 16:28:22;;;;;;;5.03;3.97;;;19.20;94.90;;;;;;4920588;29;20225;-75
2023/05/25 16:30:48;;;;;;;4.80;3.75;;;19.20;92.40;;;;;;4920453;29;20631;-73
2023/05/25 16:33:15;;;;;;;6.45;4.88;;;19.20;92.10;;;;;;4920497;29;20216;-72
2023/05/25 16:35:42;;;;;;;4.75;3.78;;;19.10;92.80;;;;;;4920562;29;20216;-72
2023/05/25 16:38:09;;;;;;;4.85;3.40;;;19.10;92.30;;;;;;4920567;29;20212;-72
2023/05/25 16:40:37;;;;;;;6.22;4.28;;;19.00;92.90;;;;;;4920485;29;20259;-71
2023/05/25 16:43:04;;;;;;;5.82;3.83;;;19.00;93.60;;;;;;4920372;29;20284;-71
2023/05/25 16:45:30;;;;;;;5.38;3.65;;;19.10;94.10;;;;;;4920392;29;20208;-71
2023/05/25 16:47:57;;;;;;;8.25;4.10;;;19.10;94.40;;;;;;4920124;29;20221;-71
2023/05/25 16:50:24;;;;;;;10.02;4.15;;;19.10;93.80;;;;;;4919938;29;20696;-71
2023/05/25 16:52:51;;;;;;;7.03;3.80;;;19.10;95.50;;;;;;4920073;29;20315;-71
2023/05/25 16:55:17;;;;;;;6.55;3.90;;;19.10;95.60;;;;;;4919801;29;20224;-71
2023/05/25 16:57:45;;;;;;;5.82;3.67;;;19.00;96.30;;;;;;4920101;29;20572;-72
2023/05/25 17:00:13;;;;;;;6.85;3.92;;;19.00;96.70;;;;;;4920015;29;20209;-71
2023/05/25 17:02:40;;;;;;;4.35;3.83;;;18.90;96.00;;;;;;4919859;29;20228;-71
2023/05/25 17:05:08;;;;;;;8.13;3.40;;;18.90;97.20;;;;;;4920040;29;20205;-71
2023/05/25 17:07:34;;;;;;;7.07;4.13;;;18.80;99.10;;;;;;4919994;29;20348;-72
2023/05/25 17:10:01;;;;;;;6.22;3.90;;;18.80;98.70;;;;;;4919981;29;20205;-71
2023/05/25 17:12:28;;;;;;;5.20;3.95;;;18.80;98.80;;;;;;4919416;29;20225;-71
2023/05/25 17:14:56;;;;;;;5.03;3.60;;;18.90;98.30;;;;;;4918647;29;20609;-71
2023/05/25 17:17:25;;;;;;;3.95;3.60;;;18.90;97.50;;;;;;4919539;29;20253;-71
2023/05/25 17:19:52;;;;;;;4.30;3.90;;;18.90;97.60;;;;;;4919723;29;20235;-72
2023/05/25 17:22:19;;;;;;;5.85;4.57;;;19.00;97.70;;;;;;4919638;29;20228;-73
2023/05/25 17:24:45;;;;;;;5.88;3.83;;;18.90;96.40;;;;;;4919646;29;20288;-72
2023/05/25 17:27:12;;;;;;;5.38;3.80;;;18.80;95.00;;;;;;4919789;29;20613;-75
2023/05/25 17:29:40;;;;;;;4.63;3.63;;;18.70;95.20;;;;;;4919521;29;20231;-73
2023/05/25 17:32:08;;;;;;;5.95;3.50;;;18.60;96.20;;;;;;4919483;29;20225;-73
2023/05/25 17:34:35;;;;;;;5.78;3.08;;;18.50;97.10;;;;;;4919543;29;20213;-73
2023/05/25 17:37:02;;;;;;;5.10;3.60;;;18.50;97.70;;;;;;4919389;29;20216;-72
2023/05/25 17:39:29;;;;;;;7.32;3.30;;;18.50;98.30;;;;;;4919388;29;20201;-72
2023/05/25 17:41:56;;;;;;;6.47;4.93;;;18.40;99.10;;;;;;4919274;29;20280;-73
2023/05/25 17:44:22;;;;;;;6.85;4.05;;;18.40;98.50;;;;;;4919375;29;20205;-73
2023/05/25 17:46:49;;;;;;;8.70;3.90;;;18.40;98.40;;;;;;4919291;29;20209;-73
2023/05/25 17:49:17;;;;;;;4.80;3.72;;;18.40;99.30;;;;;;4918928;29;20693;-72
2023/05/25 17:51:44;;;;;;;4.93;3.00;;;18.30;99.40;;;;;;4919439;29;20225;-73
2023/05/25 17:54:14;;;;;;;4.50;3.55;;;18.30;99.90;;;;;;4919023;29;20212;-74
2023/05/25 17:56:40;;;;;;;5.70;3.85;;;18.30;99.90;;;;;;4919196;29;20205;-73
2023/05/25 17:59:08;;;;;;;3.92;3.47;;;18.30;99.90;;;;;;4918670;29;20708;-74
2023/05/25 18:01:35;;;;;;;3.90;3.40;;;18.30;99.90;;;;;;4918932;29;20221;-73
2023/05/25 18:04:02;;;;;;;3.92;3.55;;;18.30;99.90;;;;;;4918916;29;20208;-73
2023/05/25 18:06:30;;;;;;;3.30;3.00;;;18.30;99.90;;;;;;4918937;29;20210;-73
2023/05/25 18:08:56;;;;;;;3.40;3.10;;;18.20;99.90;;;;;;4918791;29;20224;-73
2023/05/25 18:11:23;;;;;;;3.67;3.00;;;18.20;99.90;;;;;;4918468;29;20708;-73
2023/05/25 18:13:50;;;;;;;3.30;3.03;;;18.20;99.90;;;;;;4918760;29;20205;-73
2023/05/25 18:16:17;;;;;;;3.42;3.10;;;18.20;99.90;;;;;;4918642;29;20208;-74
2023/05/25 18:18:43;;;;;;;3.35;3.10;;;18.20;99.90;;;;;;4918702;29;20205;-73
2023/05/25 18:21:10;;;;;;;3.55;3.33;;;18.20;99.90;;;;;;4918679;29;20225;-71
2023/05/25 18:23:38;;;;;;;3.28;2.97;;;18.20;99.90;;;;;;4918600;29;20194;-71
2023/05/25 18:26:05;;;;;;;2.67;2.53;;;18.20;99.90;;;;;;4918181;29;20197;-72
2023/05/25 18:28:32;;;;;;;2.58;2.47;;;18.10;99.90;;;;;;4918078;29;20225;-71
2023/05/25 18:30:58;;;;;;;2.80;2.63;;;18.10;99.90;;;;;;4918330;29;20209;-72
2023/05/25 18:33:25;;;;;;;2.70;2.60;;;18.00;99.90;;;;;;4918537;29;20212;-71
2023/05/25 18:35:52;;;;;;;3.97;3.50;;;17.90;99.90;;;;;;4918364;29;20209;-72
2023/05/25 18:38:18;;;;;;;4.03;3.55;;;17.80;99.90;;;;;;4918554;29;20215;-73
2023/05/25 18:40:46;;;;;;;5.18;4.25;;;17.80;99.90;;;;;;4918714;29;20201;-72
2023/05/25 18:43:13;;;;;;;5.50;4.22;;;17.70;99.90;;;;;;4918674;29;20228;-72
2023/05/25 18:45:40;;;;;;;5.63;3.92;;;17.60;99.90;;;;;;4918272;29;20224;-72
2023/05/25 18:48:07;;;;;;;4.65;3.60;;;17.60;99.90;;;;;;4917952;29;20624;-72
2023/05/25 18:50:33;;;;;;;4.25;3.85;;;17.50;99.90;;;;;;4918271;29;20208;-72
2023/05/25 18:53:01;;;;;;;4.05;3.30;;;17.50;99.90;;;;;;4918151;29;20229;-72
2023/05/25 18:55:28;;;;;;;6.32;4.28;;;17.40;99.90;;;;;;4917988;29;20213;-72
2023/05/25 18:57:56;;;;;;;3.30;3.10;;;17.30;99.90;;;;;;4917839;29;20215;-72
2023/05/25 19:00:23;;;;;;;3.88;3.63;;;17.20;99.90;;;;;;4917812;29;20662;-72
2023/05/25 19:02:50;;;;;;;3.58;3.38;;;17.10;99.90;;;;;;4917967;29;20225;-72
2023/05/25 19:05:18;;;;;;;3.53;3.33;;;17.00;99.90;;;;;;4918124;29;20229;-73
2023/05/25 19:07:45;;;;;;;3.70;3.40;;;16.80;99.90;;;;;;4917919;29;20202;-73